sensor_id;sensor_type;location;lat;lon;timestamp;P1;P2;P0
77516;PMS7003;68414;53.946;27.634;2023-08-20T00:00:38;31.100000;29.083334;19.783333
77516;PMS7003;68414;53.946;27.634;2023-08-20T00:01:38;30.633333;28.150000;19.666666
77516;PMS7003;68414;53.946;27.634;2023-08-20T00:02:41;32.183334;30.233334;20.683332
77516;PMS7003;68414;53.946;27.634;2023-08-20T00:03:40;32.683334;28.799999;20.400000
77516;PMS7003;68414;53.946;27.634;2023-08-20T00:04:39;34.433334;30.933332;20.250000
77516;PMS7003;68414;53.946;27.634;2023-08-20T00:05:39;33.650002;31.016666;20.783333
77516;PMS7003;68414;53.946;27.634;2023-08-20T00:06:38;32.866665;31.083334;21.400000
77516;PMS7003;68414;53.946;27.634;2023-08-20T00:07:38;33.833332;31.799999;22.133333
77516;PMS7003;68414;53.946;27.634;2023-08-20T00:08:39;33.133335;31.383333;22.100000
77516;PMS7003;68414;53.946;27.634;2023-08-20T00:09:38;37.183334;32.583332;22.283333
77516;PMS7003;68414;53.946;27.634;2023-08-20T00:10:38;39.666668;33.450001;22.366667
77516;PMS7003;68414;53.946;27.634;2023-08-20T00:11:38;35.383335;31.549999;21.916666
77516;PMS7003;68414;53.946;27.634;2023-08-20T00:12:37;33.500000;31.333334;21.166666
77516;PMS7003;68414;53.946;27.634;2023-08-20T00:13:38;34.616665;31.900000;21.900000
77516;PMS7003;68414;53.946;27.634;2023-08-20T00:15:38;34.400002;32.016666;22.233334
77516;PMS7003;68414;53.946;27.634;2023-08-20T00:16:38;32.849998;30.966667;21.833334
77516;PMS7003;68414;53.946;27.634;2023-08-20T00:17:39;34.500000;31.850000;22.016666
77516;PMS7003;68414;53.946;27.634;2023-08-20T00:18:39;34.616665;31.783333;21.549999
77516;PMS7003;68414;53.946;27.634;2023-08-20T00:19:38;35.750000;31.900000;21.450001
77516;PMS7003;68414;53.946;27.634;2023-08-20T00:20:38;35.283333;31.766666;21.483334
77516;PMS7003;68414;53.946;27.634;2023-08-20T00:22:40;33.683334;31.400000;21.433332
77516;PMS7003;68414;53.946;27.634;2023-08-20T00:23:38;35.816666;32.516666;21.983334
77516;PMS7003;68414;53.946;27.634;2023-08-20T00:24:40;33.750000;31.350000;21.483334
77516;PMS7003;68414;53.946;27.634;2023-08-20T00:25:38;32.799999;31.333334;21.866667
77516;PMS7003;68414;53.946;27.634;2023-08-20T00:26:38;34.683334;31.616667;21.816668
77516;PMS7003;68414;53.946;27.634;2023-08-20T00:27:40;34.216667;31.616667;21.450001
77516;PMS7003;68414;53.946;27.634;2023-08-20T00:28:38;35.416668;32.283333;21.799999
77516;PMS7003;68414;53.946;27.634;2023-08-20T00:29:38;35.033333;32.166668;21.966667
77516;PMS7003;68414;53.946;27.634;2023-08-20T00:30:38;38.549999;34.066666;22.883333
77516;PMS7003;68414;53.946;27.634;2023-08-20T00:31:38;37.283333;32.900002;22.233334
77516;PMS7003;68414;53.946;27.634;2023-08-20T00:32:38;38.883335;34.116665;22.733334
77516;PMS7003;68414;53.946;27.634;2023-08-20T00:33:39;39.083332;33.733334;22.133333
77516;PMS7003;68414;53.946;27.634;2023-08-20T00:34:37;36.966667;33.433334;22.766666
77516;PMS7003;68414;53.946;27.634;2023-08-20T00:35:38;36.683334;33.316666;22.583334
77516;PMS7003;68414;53.946;27.634;2023-08-20T00:36:38;38.433334;34.133335;22.666666
77516;PMS7003;68414;53.946;27.634;2023-08-20T00:37:40;38.150002;33.450001;22.833334
77516;PMS7003;68414;53.946;27.634;2023-08-20T00:38:37;37.549999;33.849998;23.500000
77516;PMS7003;68414;53.946;27.634;2023-08-20T00:39:39;38.799999;33.616665;22.900000
77516;PMS7003;68414;53.946;27.634;2023-08-20T00:40:37;42.150002;36.166668;22.966667
77516;PMS7003;68414;53.946;27.634;2023-08-20T00:41:38;39.683334;35.116665;23.650000
77516;PMS7003;68414;53.946;27.634;2023-08-20T00:42:39;40.333332;35.083332;23.416666
77516;PMS7003;68414;53.946;27.634;2023-08-20T00:43:39;38.200001;33.616665;23.233334
77516;PMS7003;68414;53.946;27.634;2023-08-20T00:44:38;42.116665;36.216667;24.333334
77516;PMS7003;68414;53.946;27.634;2023-08-20T00:46:39;42.616665;35.666668;24.100000
77516;PMS7003;68414;53.946;27.634;2023-08-20T00:47:38;43.450001;37.200001;24.816668
77516;PMS7003;68414;53.946;27.634;2023-08-20T00:48:38;45.799999;38.266666;25.083334
77516;PMS7003;68414;53.946;27.634;2023-08-20T00:49:38;45.083332;38.216667;25.950001
77516;PMS7003;68414;53.946;27.634;2023-08-20T00:50:40;44.783333;37.916668;25.133333
77516;PMS7003;68414;53.946;27.634;2023-08-20T00:51:38;45.099998;38.116665;25.216667
77516;PMS7003;68414;53.946;27.634;2023-08-20T00:52:38;45.400002;38.933334;25.983334
77516;PMS7003;68414;53.946;27.634;2023-08-20T00:53:38;44.733334;38.266666;25.700001
77516;PMS7003;68414;53.946;27.634;2023-08-20T00:54:40;46.299999;38.549999;25.100000
77516;PMS7003;68414;53.946;27.634;2023-08-20T00:55:37;43.500000;36.683334;25.000000
77516;PMS7003;68414;53.946;27.634;2023-08-20T00:56:38;40.400002;35.633335;24.233334
77516;PMS7003;68414;53.946;27.634;2023-08-20T00:57:38;43.883335;36.566666;24.566668
77516;PMS7003;68414;53.946;27.634;2023-08-20T00:58:37;43.233334;37.000000;25.100000
77516;PMS7003;68414;53.946;27.634;2023-08-20T00:59:38;45.700001;38.183334;25.066668
77516;PMS7003;68414;53.946;27.634;2023-08-20T01:00:38;42.750000;36.333332;24.916666
77516;PMS7003;68414;53.946;27.634;2023-08-20T01:01:38;42.766666;36.316666;24.049999
77516;PMS7003;68414;53.946;27.634;2023-08-20T01:02:38;43.400002;36.900002;24.533333
77516;PMS7003;68414;53.946;27.634;2023-08-20T01:03:40;42.916668;36.299999;24.049999
77516;PMS7003;68414;53.946;27.634;2023-08-20T01:04:38;39.466667;34.566666;23.266666
77516;PMS7003;68414;53.946;27.634;2023-08-20T01:05:42;39.849998;34.666668;23.266666
77516;PMS7003;68414;53.946;27.634;2023-08-20T01:08:40;41.833332;36.216667;23.783333
77516;PMS7003;68414;53.946;27.634;2023-08-20T01:10:42;40.733334;35.283333;23.616667
77516;PMS7003;68414;53.946;27.634;2023-08-20T01:11:42;38.716667;34.250000;22.500000
77516;PMS7003;68414;53.946;27.634;2023-08-20T01:12:38;40.983334;34.833332;23.283333
77516;PMS7003;68414;53.946;27.634;2023-08-20T01:13:39;41.099998;35.816666;24.016666
77516;PMS7003;68414;53.946;27.634;2023-08-20T01:14:38;42.683334;36.833332;24.733334
77516;PMS7003;68414;53.946;27.634;2023-08-20T01:15:38;41.500000;36.500000;24.216667
77516;PMS7003;68414;53.946;27.634;2023-08-20T01:16:39;41.733334;36.333332;24.316668
77516;PMS7003;68414;53.946;27.634;2023-08-20T01:17:37;41.333332;35.616665;23.450001
77516;PMS7003;68414;53.946;27.634;2023-08-20T01:18:39;43.833332;37.400002;24.666666
77516;PMS7003;68414;53.946;27.634;2023-08-20T01:19:38;42.633335;36.566666;24.483334
77516;PMS7003;68414;53.946;27.634;2023-08-20T01:20:41;42.583332;35.583332;23.500000
77516;PMS7003;68414;53.946;27.634;2023-08-20T01:21:39;40.333332;34.383335;23.049999
77516;PMS7003;68414;53.946;27.634;2023-08-20T01:28:39;40.216667;34.883335;23.500000
77516;PMS7003;68414;53.946;27.634;2023-08-20T01:29:39;35.633335;32.116665;22.266666
77516;PMS7003;68414;53.946;27.634;2023-08-20T01:30:38;38.549999;33.849998;22.716667
77516;PMS7003;68414;53.946;27.634;2023-08-20T01:31:38;38.883335;34.716667;23.383333
77516;PMS7003;68414;53.946;27.634;2023-08-20T01:32:38;37.799999;33.566666;22.616667
77516;PMS7003;68414;53.946;27.634;2023-08-20T01:33:38;41.200001;35.133335;23.600000
77516;PMS7003;68414;53.946;27.634;2023-08-20T01:34:38;41.783333;35.650002;23.700001
77516;PMS7003;68414;53.946;27.634;2023-08-20T01:35:38;41.866665;36.299999;24.000000
77516;PMS7003;68414;53.946;27.634;2023-08-20T01:36:38;36.750000;33.200001;22.700001
77516;PMS7003;68414;53.946;27.634;2023-08-20T01:37:38;39.083332;35.183334;23.633333
77516;PMS7003;68414;53.946;27.634;2023-08-20T01:38:37;40.383335;34.983334;23.316668
77516;PMS7003;68414;53.946;27.634;2023-08-20T01:39:37;39.133335;33.966667;22.216667
77516;PMS7003;68414;53.946;27.634;2023-08-20T01:40:38;38.266666;33.416668;22.666666
77516;PMS7003;68414;53.946;27.634;2023-08-20T01:41:39;36.250000;32.950001;22.350000
77516;PMS7003;68414;53.946;27.634;2023-08-20T01:42:38;41.400002;36.016666;23.400000
77516;PMS7003;68414;53.946;27.634;2023-08-20T01:43:38;42.666668;36.166668;23.683332
77516;PMS7003;68414;53.946;27.634;2023-08-20T01:44:37;41.049999;34.900002;22.900000
77516;PMS7003;68414;53.946;27.634;2023-08-20T01:45:38;38.283333;33.816666;22.250000
77516;PMS7003;68414;53.946;27.634;2023-08-20T01:46:38;36.883335;32.566666;22.483334
77516;PMS7003;68414;53.946;27.634;2023-08-20T01:47:39;36.366665;32.766666;22.533333
77516;PMS7003;68414;53.946;27.634;2023-08-20T01:48:37;37.950001;33.349998;22.500000
77516;PMS7003;68414;53.946;27.634;2023-08-20T01:49:37;38.500000;34.299999;23.066668
77516;PMS7003;68414;53.946;27.634;2023-08-20T01:50:37;39.950001;34.983334;23.783333
77516;PMS7003;68414;53.946;27.634;2023-08-20T01:51:37;38.683334;34.383335;23.533333
77516;PMS7003;68414;53.946;27.634;2023-08-20T01:52:39;39.166668;34.866665;22.900000
77516;PMS7003;68414;53.946;27.634;2023-08-20T01:53:39;39.966667;34.233334;23.383333
77516;PMS7003;68414;53.946;27.634;2023-08-20T01:54:37;39.583332;34.616665;22.516666
77516;PMS7003;68414;53.946;27.634;2023-08-20T01:55:38;39.099998;34.616665;22.950001
77516;PMS7003;68414;53.946;27.634;2023-08-20T01:56:40;40.849998;35.250000;23.233334
77516;PMS7003;68414;53.946;27.634;2023-08-20T01:57:38;38.683334;33.633335;22.433332
77516;PMS7003;68414;53.946;27.634;2023-08-20T01:58:38;36.583332;33.016666;22.866667
77516;PMS7003;68414;53.946;27.634;2023-08-20T01:59:37;36.683334;32.816666;22.216667
77516;PMS7003;68414;53.946;27.634;2023-08-20T02:00:37;39.183334;34.183334;23.166666
77516;PMS7003;68414;53.946;27.634;2023-08-20T02:01:39;39.400002;34.066666;22.566668
77516;PMS7003;68414;53.946;27.634;2023-08-20T02:02:38;39.250000;34.150002;22.799999
77516;PMS7003;68414;53.946;27.634;2023-08-20T02:03:39;39.483334;34.650002;23.000000
77516;PMS7003;68414;53.946;27.634;2023-08-20T02:04:37;40.033333;34.483334;22.666666
77516;PMS7003;68414;53.946;27.634;2023-08-20T02:05:37;36.333332;32.966667;22.350000
77516;PMS7003;68414;53.946;27.634;2023-08-20T02:06:37;38.849998;33.883335;22.850000
77516;PMS7003;68414;53.946;27.634;2023-08-20T02:07:38;37.783333;33.433334;22.616667
77516;PMS7003;68414;53.946;27.634;2023-08-20T02:08:39;37.933334;33.866665;22.416666
77516;PMS7003;68414;53.946;27.634;2023-08-20T02:09:37;34.799999;31.799999;21.850000
77516;PMS7003;68414;53.946;27.634;2023-08-20T02:10:37;39.433334;34.466667;22.833334
77516;PMS7003;68414;53.946;27.634;2023-08-20T02:11:37;40.450001;34.849998;23.316668
77516;PMS7003;68414;53.946;27.634;2023-08-20T02:12:37;37.833332;33.283333;23.266666
77516;PMS7003;68414;53.946;27.634;2023-08-20T02:13:38;38.700001;34.316666;22.966667
77516;PMS7003;68414;53.946;27.634;2023-08-20T02:14:37;35.200001;32.450001;22.483334
77516;PMS7003;68414;53.946;27.634;2023-08-20T02:15:37;39.566666;34.566666;22.633333
77516;PMS7003;68414;53.946;27.634;2023-08-20T02:16:37;38.583332;34.066666;22.716667
77516;PMS7003;68414;53.946;27.634;2023-08-20T02:17:37;37.633335;33.666668;22.266666
77516;PMS7003;68414;53.946;27.634;2023-08-20T02:18:37;38.933334;34.099998;22.733334
77516;PMS7003;68414;53.946;27.634;2023-08-20T02:19:38;38.349998;33.683334;23.066668
77516;PMS7003;68414;53.946;27.634;2023-08-20T02:20:37;39.916668;34.966667;23.150000
77516;PMS7003;68414;53.946;27.634;2023-08-20T02:21:39;40.683334;35.583332;23.850000
77516;PMS7003;68414;53.946;27.634;2023-08-20T02:22:37;40.516666;35.583332;23.433332
77516;PMS7003;68414;53.946;27.634;2023-08-20T02:23:37;42.666668;36.383335;23.866667
77516;PMS7003;68414;53.946;27.634;2023-08-20T02:24:37;42.416668;36.066666;24.250000
77516;PMS7003;68414;53.946;27.634;2023-08-20T02:25:39;41.666668;36.250000;24.766666
77516;PMS7003;68414;53.946;27.634;2023-08-20T02:26:37;41.716667;36.099998;23.566668
77516;PMS7003;68414;53.946;27.634;2023-08-20T02:27:37;40.933334;35.599998;23.533333
77516;PMS7003;68414;53.946;27.634;2023-08-20T02:28:37;43.299999;36.799999;24.616667
77516;PMS7003;68414;53.946;27.634;2023-08-20T02:29:37;37.516666;34.016666;23.049999
77516;PMS7003;68414;53.946;27.634;2023-08-20T02:31:37;40.900002;35.066666;23.583334
77516;PMS7003;68414;53.946;27.634;2023-08-20T02:32:37;41.000000;35.900002;23.650000
77516;PMS7003;68414;53.946;27.634;2023-08-20T02:33:39;40.349998;35.616665;23.783333
77516;PMS7003;68414;53.946;27.634;2023-08-20T02:34:37;40.799999;35.266666;23.566668
77516;PMS7003;68414;53.946;27.634;2023-08-20T02:35:39;43.116665;36.433334;23.750000
77516;PMS7003;68414;53.946;27.634;2023-08-20T02:36:38;40.366665;34.683334;22.799999
77516;PMS7003;68414;53.946;27.634;2023-08-20T02:37:37;39.366665;34.116665;23.133333
77516;PMS7003;68414;53.946;27.634;2023-08-20T02:38:37;38.349998;34.216667;23.100000
77516;PMS7003;68414;53.946;27.634;2023-08-20T02:39:37;40.533333;34.683334;23.133333
77516;PMS7003;68414;53.946;27.634;2023-08-20T02:40:40;40.583332;35.066666;22.733334
77516;PMS7003;68414;53.946;27.634;2023-08-20T02:41:37;37.666668;33.783333;23.000000
77516;PMS7003;68414;53.946;27.634;2023-08-20T02:42:37;38.983334;33.849998;22.816668
77516;PMS7003;68414;53.946;27.634;2023-08-20T02:43:37;40.799999;34.483334;22.883333
77516;PMS7003;68414;53.946;27.634;2023-08-20T02:44:37;43.133335;36.099998;23.633333
77516;PMS7003;68414;53.946;27.634;2023-08-20T02:45:44;42.316666;35.616665;23.033333
77516;PMS7003;68414;53.946;27.634;2023-08-20T02:46:39;39.283333;34.133335;22.600000
77516;PMS7003;68414;53.946;27.634;2023-08-20T02:47:37;42.150002;35.716667;23.033333
77516;PMS7003;68414;53.946;27.634;2023-08-20T02:48:39;42.933334;36.833332;23.666666
77516;PMS7003;68414;53.946;27.634;2023-08-20T02:49:40;40.783333;35.866665;23.716667
77516;PMS7003;68414;53.946;27.634;2023-08-20T02:50:38;41.099998;35.400002;24.366667
77516;PMS7003;68414;53.946;27.634;2023-08-20T02:51:37;38.466667;33.933334;23.600000
77516;PMS7003;68414;53.946;27.634;2023-08-20T02:52:37;40.366665;34.849998;23.049999
77516;PMS7003;68414;53.946;27.634;2023-08-20T02:53:37;38.183334;33.616665;22.600000
77516;PMS7003;68414;53.946;27.634;2023-08-20T02:54:37;39.400002;34.316666;23.266666
77516;PMS7003;68414;53.946;27.634;2023-08-20T02:55:37;38.033333;33.266666;22.750000
77516;PMS7003;68414;53.946;27.634;2023-08-20T02:56:38;38.150002;33.049999;22.216667
77516;PMS7003;68414;53.946;27.634;2023-08-20T02:57:37;40.500000;35.000000;23.383333
77516;PMS7003;68414;53.946;27.634;2023-08-20T02:58:37;37.400002;33.266666;22.516666
77516;PMS7003;68414;53.946;27.634;2023-08-20T02:59:37;39.633335;34.650002;22.933332
77516;PMS7003;68414;53.946;27.634;2023-08-20T03:00:37;38.849998;33.733334;22.966667
77516;PMS7003;68414;53.946;27.634;2023-08-20T03:01:37;39.200001;33.833332;22.616667
77516;PMS7003;68414;53.946;27.634;2023-08-20T03:02:38;38.216667;33.716667;22.883333
77516;PMS7003;68414;53.946;27.634;2023-08-20T03:03:37;37.366665;33.549999;22.733334
77516;PMS7003;68414;53.946;27.634;2023-08-20T03:04:37;37.650002;33.716667;22.100000
77516;PMS7003;68414;53.946;27.634;2023-08-20T03:05:37;37.616665;33.650002;22.250000
77516;PMS7003;68414;53.946;27.634;2023-08-20T03:06:37;38.616665;33.700001;22.466667
77516;PMS7003;68414;53.946;27.634;2023-08-20T03:07:37;37.950001;33.516666;22.566668
77516;PMS7003;68414;53.946;27.634;2023-08-20T03:08:37;36.983334;33.033333;22.483334
77516;PMS7003;68414;53.946;27.634;2023-08-20T03:09:38;34.450001;31.966667;22.133333
77516;PMS7003;68414;53.946;27.634;2023-08-20T03:10:37;37.250000;33.133335;21.583334
77516;PMS7003;68414;53.946;27.634;2023-08-20T03:11:37;40.866665;35.233334;23.150000
77516;PMS7003;68414;53.946;27.634;2023-08-20T03:12:37;37.633335;33.566666;22.016666
77516;PMS7003;68414;53.946;27.634;2023-08-20T03:13:37;38.683334;33.500000;22.466667
77516;PMS7003;68414;53.946;27.634;2023-08-20T03:14:37;37.750000;33.283333;22.549999
77516;PMS7003;68414;53.946;27.634;2023-08-20T03:15:37;38.450001;33.583332;22.383333
77516;PMS7003;68414;53.946;27.634;2023-08-20T03:16:39;37.833332;33.783333;22.250000
77516;PMS7003;68414;53.946;27.634;2023-08-20T03:17:37;38.099998;33.700001;22.400000
77516;PMS7003;68414;53.946;27.634;2023-08-20T03:18:37;37.533333;33.700001;22.950001
77516;PMS7003;68414;53.946;27.634;2023-08-20T03:19:47;35.599998;32.566666;22.516666
77516;PMS7003;68414;53.946;27.634;2023-08-20T03:20:39;36.766666;32.450001;21.983334
77516;PMS7003;68414;53.946;27.634;2023-08-20T03:21:39;35.299999;32.066666;22.133333
77516;PMS7003;68414;53.946;27.634;2023-08-20T03:22:38;36.666668;32.766666;22.733334
77516;PMS7003;68414;53.946;27.634;2023-08-20T03:23:37;35.983334;33.133335;22.299999
77516;PMS7003;68414;53.946;27.634;2023-08-20T03:24:37;37.666668;33.433334;22.383333
77516;PMS7003;68414;53.946;27.634;2023-08-20T03:25:39;36.433334;33.266666;22.400000
77516;PMS7003;68414;53.946;27.634;2023-08-20T03:26:37;35.133335;32.066666;22.049999
77516;PMS7003;68414;53.946;27.634;2023-08-20T03:27:37;38.500000;33.650002;23.000000
77516;PMS7003;68414;53.946;27.634;2023-08-20T03:28:37;40.750000;35.150002;23.000000
77516;PMS7003;68414;53.946;27.634;2023-08-20T03:29:37;42.016666;35.616665;23.100000
77516;PMS7003;68414;53.946;27.634;2023-08-20T03:30:39;38.516666;33.250000;22.250000
77516;PMS7003;68414;53.946;27.634;2023-08-20T03:31:38;36.900002;32.833332;22.516666
77516;PMS7003;68414;53.946;27.634;2023-08-20T03:32:38;39.616665;34.483334;22.566668
77516;PMS7003;68414;53.946;27.634;2023-08-20T03:33:37;39.183334;34.366665;22.633333
77516;PMS7003;68414;53.946;27.634;2023-08-20T03:34:38;39.383335;34.616665;22.799999
77516;PMS7003;68414;53.946;27.634;2023-08-20T03:35:38;37.866665;33.950001;21.916666
77516;PMS7003;68414;53.946;27.634;2023-08-20T03:36:39;40.549999;35.349998;23.299999
77516;PMS7003;68414;53.946;27.634;2023-08-20T03:37:38;40.966667;35.483334;23.350000
77516;PMS7003;68414;53.946;27.634;2023-08-20T03:38:40;42.833332;36.616665;23.650000
77516;PMS7003;68414;53.946;27.634;2023-08-20T03:39:38;43.549999;36.316666;23.766666
77516;PMS7003;68414;53.946;27.634;2023-08-20T03:40:37;40.183334;35.049999;23.766666
77516;PMS7003;68414;53.946;27.634;2023-08-20T03:41:37;40.033333;34.666668;23.183332
77516;PMS7003;68414;53.946;27.634;2023-08-20T03:42:37;43.099998;36.466667;24.033333
77516;PMS7003;68414;53.946;27.634;2023-08-20T03:43:37;43.233334;37.016666;24.366667
77516;PMS7003;68414;53.946;27.634;2023-08-20T03:44:37;41.916668;35.766666;22.916666
77516;PMS7003;68414;53.946;27.634;2023-08-20T03:45:37;43.083332;37.133335;24.016666
77516;PMS7003;68414;53.946;27.634;2023-08-20T03:46:37;42.549999;36.333332;23.799999
77516;PMS7003;68414;53.946;27.634;2023-08-20T03:47:37;40.349998;35.400002;23.483334
77516;PMS7003;68414;53.946;27.634;2023-08-20T03:48:37;40.216667;34.083332;22.816668
77516;PMS7003;68414;53.946;27.634;2023-08-20T03:49:37;38.316666;33.933334;23.100000
77516;PMS7003;68414;53.946;27.634;2023-08-20T03:50:38;42.000000;35.633335;23.049999
77516;PMS7003;68414;53.946;27.634;2023-08-20T03:51:37;41.533333;35.900002;23.733334
77516;PMS7003;68414;53.946;27.634;2023-08-20T03:52:37;42.183334;35.366665;23.433332
77516;PMS7003;68414;53.946;27.634;2023-08-20T03:53:37;43.516666;36.450001;24.883333
77516;PMS7003;68414;53.946;27.634;2023-08-20T03:54:37;43.799999;37.250000;24.950001
77516;PMS7003;68414;53.946;27.634;2023-08-20T03:55:37;43.466667;37.049999;24.083334
77516;PMS7003;68414;53.946;27.634;2023-08-20T03:56:37;44.000000;37.466667;24.250000
77516;PMS7003;68414;53.946;27.634;2023-08-20T03:57:37;42.466667;36.849998;24.433332
77516;PMS7003;68414;53.946;27.634;2023-08-20T03:58:39;44.733334;37.066666;24.700001
77516;PMS7003;68414;53.946;27.634;2023-08-20T03:59:37;44.533333;38.183334;25.283333
77516;PMS7003;68414;53.946;27.634;2023-08-20T04:00:37;43.299999;36.650002;24.983334
77516;PMS7003;68414;53.946;27.634;2023-08-20T04:01:39;44.016666;37.299999;24.500000
77516;PMS7003;68414;53.946;27.634;2023-08-20T04:02:37;42.916668;36.633335;25.500000
77516;PMS7003;68414;53.946;27.634;2023-08-20T04:03:37;44.966667;38.433334;25.766666
77516;PMS7003;68414;53.946;27.634;2023-08-20T04:04:38;45.283333;38.166668;25.650000
77516;PMS7003;68414;53.946;27.634;2023-08-20T04:05:38;45.416668;38.183334;24.866667
77516;PMS7003;68414;53.946;27.634;2023-08-20T04:06:37;42.799999;36.166668;24.133333
77516;PMS7003;68414;53.946;27.634;2023-08-20T04:07:39;42.933334;36.483334;24.666666
77516;PMS7003;68414;53.946;27.634;2023-08-20T04:08:37;43.700001;37.250000;25.016666
77516;PMS7003;68414;53.946;27.634;2023-08-20T04:09:37;42.433334;36.516666;25.100000
77516;PMS7003;68414;53.946;27.634;2023-08-20T04:11:37;43.566666;37.266666;24.683332
77516;PMS7003;68414;53.946;27.634;2023-08-20T04:12:37;44.299999;37.633335;24.866667
77516;PMS7003;68414;53.946;27.634;2023-08-20T04:13:37;43.116665;36.083332;23.650000
77516;PMS7003;68414;53.946;27.634;2023-08-20T04:14:37;44.633335;37.066666;24.450001
77516;PMS7003;68414;53.946;27.634;2023-08-20T04:15:37;41.750000;35.933334;24.266666
77516;PMS7003;68414;53.946;27.634;2023-08-20T04:16:37;43.049999;35.583332;24.483334
77516;PMS7003;68414;53.946;27.634;2023-08-20T04:17:39;42.299999;36.900002;24.450001
77516;PMS7003;68414;53.946;27.634;2023-08-20T04:18:38;44.849998;38.316666;26.416666
77516;PMS7003;68414;53.946;27.634;2023-08-20T04:19:38;44.833332;38.583332;25.583334
77516;PMS7003;68414;53.946;27.634;2023-08-20T04:20:37;44.666668;37.066666;25.066668
77516;PMS7003;68414;53.946;27.634;2023-08-20T04:21:37;43.033333;36.416668;23.850000
77516;PMS7003;68414;53.946;27.634;2023-08-20T04:22:38;43.366665;36.616665;24.516666
77516;PMS7003;68414;53.946;27.634;2023-08-20T04:23:37;39.916668;34.583332;24.350000
77516;PMS7003;68414;53.946;27.634;2023-08-20T04:24:39;42.849998;36.383335;24.799999
77516;PMS7003;68414;53.946;27.634;2023-08-20T04:25:37;42.349998;36.200001;23.866667
77516;PMS7003;68414;53.946;27.634;2023-08-20T04:26:37;44.150002;37.983334;24.983334
77516;PMS7003;68414;53.946;27.634;2023-08-20T04:27:37;43.366665;37.200001;25.416666
77516;PMS7003;68414;53.946;27.634;2023-08-20T04:28:37;44.283333;37.766666;25.483334
77516;PMS7003;68414;53.946;27.634;2023-08-20T04:29:37;46.083332;38.599998;25.549999
77516;PMS7003;68414;53.946;27.634;2023-08-20T04:30:39;46.333332;38.700001;25.916666
77516;PMS7003;68414;53.946;27.634;2023-08-20T04:31:37;44.316666;37.483334;25.900000
77516;PMS7003;68414;53.946;27.634;2023-08-20T04:32:37;45.716667;38.799999;25.799999
77516;PMS7003;68414;53.946;27.634;2023-08-20T04:33:40;46.400002;39.000000;26.016666
77516;PMS7003;68414;53.946;27.634;2023-08-20T04:34:38;47.483334;39.700001;26.450001
77516;PMS7003;68414;53.946;27.634;2023-08-20T04:35:37;46.083332;39.099998;26.383333
77516;PMS7003;68414;53.946;27.634;2023-08-20T04:36:37;45.900002;38.450001;25.133333
77516;PMS7003;68414;53.946;27.634;2023-08-20T04:37:37;46.083332;39.416668;26.033333
77516;PMS7003;68414;53.946;27.634;2023-08-20T04:38:37;44.450001;37.733334;24.916666
77516;PMS7003;68414;53.946;27.634;2023-08-20T04:39:37;42.750000;36.733334;24.299999
77516;PMS7003;68414;53.946;27.634;2023-08-20T04:40:37;41.533333;36.166668;24.233334
77516;PMS7003;68414;53.946;27.634;2023-08-20T04:41:37;43.916668;36.700001;24.533333
77516;PMS7003;68414;53.946;27.634;2023-08-20T04:42:37;42.466667;36.250000;24.733334
77516;PMS7003;68414;53.946;27.634;2023-08-20T04:43:37;41.650002;35.416668;24.283333
77516;PMS7003;68414;53.946;27.634;2023-08-20T04:44:37;42.950001;36.333332;24.100000
77516;PMS7003;68414;53.946;27.634;2023-08-20T04:45:37;42.333332;36.083332;24.100000
77516;PMS7003;68414;53.946;27.634;2023-08-20T04:46:39;39.133335;33.950001;23.083334
77516;PMS7003;68414;53.946;27.634;2023-08-20T04:47:38;41.766666;35.883335;23.950001
77516;PMS7003;68414;53.946;27.634;2023-08-20T04:48:38;44.049999;36.933334;23.566668
77516;PMS7003;68414;53.946;27.634;2023-08-20T04:49:37;39.750000;34.883335;24.133333
77516;PMS7003;68414;53.946;27.634;2023-08-20T04:50:37;37.766666;33.833332;23.383333
77516;PMS7003;68414;53.946;27.634;2023-08-20T04:51:38;39.466667;33.950001;22.400000
77516;PMS7003;68414;53.946;27.634;2023-08-20T04:52:37;39.816666;34.783333;22.833334
77516;PMS7003;68414;53.946;27.634;2023-08-20T04:53:37;39.299999;33.983334;22.783333
77516;PMS7003;68414;53.946;27.634;2023-08-20T04:54:39;39.766666;34.783333;22.900000
77516;PMS7003;68414;53.946;27.634;2023-08-20T04:55:38;40.816666;35.250000;22.983334
77516;PMS7003;68414;53.946;27.634;2023-08-20T04:56:37;41.200001;35.533333;23.533333
77516;PMS7003;68414;53.946;27.634;2023-08-20T04:57:37;41.066666;35.516666;23.799999
77516;PMS7003;68414;53.946;27.634;2023-08-20T04:58:37;41.500000;36.000000;23.266666